sensor_id;sensor_type;location;lat;lon;timestamp;P1;durP1;ratioP1;P2;durP2;ratioP2
27539;SDS011;15906;52.046;4.724;2022-10-04T00:01:02;17.20;;;8.55;;
27539;SDS011;15906;52.046;4.724;2022-10-04T00:03:30;15.90;;;8.02;;
27539;SDS011;15906;52.046;4.724;2022-10-04T00:06:01;16.25;;;8.23;;
27539;SDS011;15906;52.046;4.724;2022-10-04T00:08:40;15.73;;;8.23;;
27539;SDS011;15906;52.046;4.724;2022-10-04T00:11:12;12.23;;;8.75;;
27539;SDS011;15906;52.046;4.724;2022-10-04T00:13:45;19.65;;;9.20;;
27539;SDS011;15906;52.046;4.724;2022-10-04T00:16:22;15.30;;;8.60;;
27539;SDS011;15906;52.046;4.724;2022-10-04T00:18:59;15.50;;;8.35;;
27539;SDS011;15906;52.046;4.724;2022-10-04T00:24:26;15.23;;;8.43;;
27539;SDS011;15906;52.046;4.724;2022-10-04T00:32:28;17.73;;;9.43;;
27539;SDS011;15906;52.046;4.724;2022-10-04T00:35:44;17.60;;;10.00;;
27539;SDS011;15906;52.046;4.724;2022-10-04T00:40:22;13.38;;;9.52;;
27539;SDS011;15906;52.046;4.724;2022-10-04T00:42:58;16.85;;;9.30;;
27539;SDS011;15906;52.046;4.724;2022-10-04T00:45:31;19.73;;;9.38;;
27539;SDS011;15906;52.046;4.724;2022-10-04T00:50:34;19.60;;;9.60;;
27539;SDS011;15906;52.046;4.724;2022-10-04T00:53:11;18.40;;;9.48;;
27539;SDS011;15906;52.046;4.724;2022-10-04T00:55:53;15.43;;;9.50;;
27539;SDS011;15906;52.046;4.724;2022-10-04T00:58:23;15.95;;;9.43;;
27539;SDS011;15906;52.046;4.724;2022-10-04T01:00:53;14.57;;;9.68;;
27539;SDS011;15906;52.046;4.724;2022-10-04T01:03:28;15.48;;;9.27;;
27539;SDS011;15906;52.046;4.724;2022-10-04T01:06:00;23.80;;;9.55;;
27539;SDS011;15906;52.046;4.724;2022-10-04T01:08:37;17.30;;;8.93;;
27539;SDS011;15906;52.046;4.724;2022-10-04T01:11:19;18.33;;;9.20;;
27539;SDS011;15906;52.046;4.724;2022-10-04T01:13:52;15.63;;;9.48;;
27539;SDS011;15906;52.046;4.724;2022-10-04T01:16:24;14.88;;;9.82;;
27539;SDS011;15906;52.046;4.724;2022-10-04T01:18:51;23.45;;;10.13;;
27539;SDS011;15906;52.046;4.724;2022-10-04T01:28:59;17.85;;;10.43;;
27539;SDS011;15906;52.046;4.724;2022-10-04T01:31:30;20.83;;;10.27;;
27539;SDS011;15906;52.046;4.724;2022-10-04T01:33:58;19.80;;;10.32;;
27539;SDS011;15906;52.046;4.724;2022-10-04T01:36:24;16.95;;;10.20;;
27539;SDS011;15906;52.046;4.724;2022-10-04T01:38:51;19.63;;;10.35;;
27539;SDS011;15906;52.046;4.724;2022-10-04T01:41:18;16.85;;;10.38;;
27539;SDS011;15906;52.046;4.724;2022-10-04T01:43:50;17.48;;;10.18;;
27539;SDS011;15906;52.046;4.724;2022-10-04T01:46:21;17.55;;;10.25;;
27539;SDS011;15906;52.046;4.724;2022-10-04T01:48:50;15.93;;;10.25;;
27539;SDS011;15906;52.046;4.724;2022-10-04T01:51:19;22.33;;;11.30;;
27539;SDS011;15906;52.046;4.724;2022-10-04T01:53:54;18.83;;;10.27;;
27539;SDS011;15906;52.046;4.724;2022-10-04T01:56:27;17.98;;;10.75;;
27539;SDS011;15906;52.046;4.724;2022-10-04T01:58:58;21.10;;;10.55;;
27539;SDS011;15906;52.046;4.724;2022-10-04T02:06:34;18.13;;;10.93;;
27539;SDS011;15906;52.046;4.724;2022-10-04T02:09:06;20.08;;;11.68;;
27539;SDS011;15906;52.046;4.724;2022-10-04T02:11:34;16.65;;;11.63;;
27539;SDS011;15906;52.046;4.724;2022-10-04T02:14:01;22.00;;;11.57;;
27539;SDS011;15906;52.046;4.724;2022-10-04T02:16:29;16.08;;;10.70;;
27539;SDS011;15906;52.046;4.724;2022-10-04T02:18:59;19.75;;;12.07;;
27539;SDS011;15906;52.046;4.724;2022-10-04T02:21:27;16.48;;;11.32;;
27539;SDS011;15906;52.046;4.724;2022-10-04T02:23:53;17.30;;;11.95;;
27539;SDS011;15906;52.046;4.724;2022-10-04T02:26:19;20.70;;;12.50;;
27539;SDS011;15906;52.046;4.724;2022-10-04T02:28:45;23.23;;;12.50;;
27539;SDS011;15906;52.046;4.724;2022-10-04T02:31:12;23.05;;;12.70;;
27539;SDS011;15906;52.046;4.724;2022-10-04T02:33:56;21.95;;;12.80;;
27539;SDS011;15906;52.046;4.724;2022-10-04T02:36:23;20.75;;;11.77;;
27539;SDS011;15906;52.046;4.724;2022-10-04T02:39:08;22.35;;;12.70;;
27539;SDS011;15906;52.046;4.724;2022-10-04T02:41:43;21.58;;;12.23;;
27539;SDS011;15906;52.046;4.724;2022-10-04T02:44:20;24.48;;;12.77;;
27539;SDS011;15906;52.046;4.724;2022-10-04T02:47:17;24.13;;;13.52;;
27539;SDS011;15906;52.046;4.724;2022-10-04T02:49:47;19.42;;;12.88;;
27539;SDS011;15906;52.046;4.724;2022-10-04T02:52:19;23.30;;;13.50;;
27539;SDS011;15906;52.046;4.724;2022-10-04T02:55:12;22.85;;;12.70;;
27539;SDS011;15906;52.046;4.724;2022-10-04T02:57:47;24.38;;;13.98;;
27539;SDS011;15906;52.046;4.724;2022-10-04T03:00:20;24.65;;;13.60;;
27539;SDS011;15906;52.046;4.724;2022-10-04T03:05:40;25.75;;;13.40;;
27539;SDS011;15906;52.046;4.724;2022-10-04T03:08:12;20.00;;;13.55;;
27539;SDS011;15906;52.046;4.724;2022-10-04T03:10:40;18.92;;;13.45;;
27539;SDS011;15906;52.046;4.724;2022-10-04T03:13:06;20.67;;;13.13;;
27539;SDS011;15906;52.046;4.724;2022-10-04T03:15:32;22.85;;;13.55;;
27539;SDS011;15906;52.046;4.724;2022-10-04T03:17:58;21.58;;;13.05;;
27539;SDS011;15906;52.046;4.724;2022-10-04T03:20:24;21.80;;;13.45;;
27539;SDS011;15906;52.046;4.724;2022-10-04T03:22:51;21.98;;;13.40;;
27539;SDS011;15906;52.046;4.724;2022-10-04T03:25:29;19.08;;;13.30;;
27539;SDS011;15906;52.046;4.724;2022-10-04T03:28:06;21.85;;;13.82;;
27539;SDS011;15906;52.046;4.724;2022-10-04T03:30:32;20.88;;;14.05;;
27539;SDS011;15906;52.046;4.724;2022-10-04T03:33:00;20.30;;;14.55;;
27539;SDS011;15906;52.046;4.724;2022-10-04T03:35:31;26.60;;;14.00;;
27539;SDS011;15906;52.046;4.724;2022-10-04T03:37:59;21.40;;;14.30;;
27539;SDS011;15906;52.046;4.724;2022-10-04T03:40:27;25.45;;;14.57;;
27539;SDS011;15906;52.046;4.724;2022-10-04T03:42:55;25.17;;;14.15;;
27539;SDS011;15906;52.046;4.724;2022-10-04T03:45:22;22.25;;;14.38;;
27539;SDS011;15906;52.046;4.724;2022-10-04T03:47:49;24.67;;;15.00;;
27539;SDS011;15906;52.046;4.724;2022-10-04T03:50:20;24.80;;;15.07;;
27539;SDS011;15906;52.046;4.724;2022-10-04T03:52:52;24.40;;;15.38;;
27539;SDS011;15906;52.046;4.724;2022-10-04T03:55:19;21.63;;;14.27;;
27539;SDS011;15906;52.046;4.724;2022-10-04T03:57:48;20.95;;;14.50;;
27539;SDS011;15906;52.046;4.724;2022-10-04T04:00:14;25.02;;;14.65;;
27539;SDS011;15906;52.046;4.724;2022-10-04T04:02:43;24.65;;;14.30;;
27539;SDS011;15906;52.046;4.724;2022-10-04T04:05:15;24.00;;;15.55;;
27539;SDS011;15906;52.046;4.724;2022-10-04T04:10:44;27.42;;;15.15;;
27539;SDS011;15906;52.046;4.724;2022-10-04T04:13:22;28.88;;;15.45;;
27539;SDS011;15906;52.046;4.724;2022-10-04T04:15:53;32.67;;;16.35;;
27539;SDS011;15906;52.046;4.724;2022-10-04T04:18:24;25.95;;;15.75;;
27539;SDS011;15906;52.046;4.724;2022-10-04T04:20:53;23.60;;;14.88;;
27539;SDS011;15906;52.046;4.724;2022-10-04T04:23:38;24.35;;;15.93;;
27539;SDS011;15906;52.046;4.724;2022-10-04T04:28:53;30.70;;;17.25;;
27539;SDS011;15906;52.046;4.724;2022-10-04T04:31:27;28.80;;;15.52;;
27539;SDS011;15906;52.046;4.724;2022-10-04T04:33:58;23.90;;;16.58;;
27539;SDS011;15906;52.046;4.724;2022-10-04T04:36:26;32.13;;;16.08;;
27539;SDS011;15906;52.046;4.724;2022-10-04T04:39:05;25.58;;;16.00;;
27539;SDS011;15906;52.046;4.724;2022-10-04T04:41:57;26.27;;;15.93;;
27539;SDS011;15906;52.046;4.724;2022-10-04T04:44:24;22.20;;;15.80;;
27539;SDS011;15906;52.046;4.724;2022-10-04T04:46:50;26.48;;;16.17;;
27539;SDS011;15906;52.046;4.724;2022-10-04T04:49:16;30.80;;;16.92;;
27539;SDS011;15906;52.046;4.724;2022-10-04T04:51:47;31.08;;;16.83;;
27539;SDS011;15906;52.046;4.724;2022-10-04T04:54:15;26.75;;;16.88;;
27539;SDS011;15906;52.046;4.724;2022-10-04T04:56:42;29.92;;;16.88;;
27539;SDS011;15906;52.046;4.724;2022-10-04T04:59:11;25.40;;;17.58;;
27539;SDS011;15906;52.046;4.724;2022-10-04T05:01:42;28.55;;;17.13;;
27539;SDS011;15906;52.046;4.724;2022-10-04T05:06:37;25.70;;;16.63;;
27539;SDS011;15906;52.046;4.724;2022-10-04T05:11:55;30.10;;;16.52;;
27539;SDS011;15906;52.046;4.724;2022-10-04T05:14:29;27.55;;;16.73;;
27539;SDS011;15906;52.046;4.724;2022-10-04T05:16:55;25.05;;;16.23;;
27539;SDS011;15906;52.046;4.724;2022-10-04T05:21:51;25.92;;;15.70;;
27539;SDS011;15906;52.046;4.724;2022-10-04T05:24:20;26.13;;;15.43;;
27539;SDS011;15906;52.046;4.724;2022-10-04T05:26:54;26.83;;;16.25;;
27539;SDS011;15906;52.046;4.724;2022-10-04T05:29:26;23.75;;;15.40;;
27539;SDS011;15906;52.046;4.724;2022-10-04T05:32:11;34.13;;;16.13;;
27539;SDS011;15906;52.046;4.724;2022-10-04T05:34:50;23.60;;;15.10;;
27539;SDS011;15906;52.046;4.724;2022-10-04T05:39:59;23.15;;;14.77;;
27539;SDS011;15906;52.046;4.724;2022-10-04T05:42:38;26.35;;;14.15;;
27539;SDS011;15906;52.046;4.724;2022-10-04T05:45:19;23.95;;;14.73;;
27539;SDS011;15906;52.046;4.724;2022-10-04T05:47:50;24.13;;;15.73;;
27539;SDS011;15906;52.046;4.724;2022-10-04T06:07:33;27.38;;;14.40;;
27539;SDS011;15906;52.046;4.724;2022-10-04T06:10:16;23.70;;;15.48;;
27539;SDS011;15906;52.046;4.724;2022-10-04T06:13:00;30.65;;;15.32;;
27539;SDS011;15906;52.046;4.724;2022-10-04T06:15:39;23.13;;;14.50;;
27539;SDS011;15906;52.046;4.724;2022-10-04T06:18:31;22.88;;;15.38;;
27539;SDS011;15906;52.046;4.724;2022-10-04T06:21:29;23.35;;;15.32;;
27539;SDS011;15906;52.046;4.724;2022-10-04T06:24:02;25.10;;;16.02;;
27539;SDS011;15906;52.046;4.724;2022-10-04T06:26:38;24.25;;;15.82;;
27539;SDS011;15906;52.046;4.724;2022-10-04T06:29:13;25.27;;;15.98;;
27539;SDS011;15906;52.046;4.724;2022-10-04T06:34:34;23.05;;;15.45;;
27539;SDS011;15906;52.046;4.724;2022-10-04T06:37:28;26.88;;;16.05;;
27539;SDS011;15906;52.046;4.724;2022-10-04T06:51:51;28.85;;;17.88;;
27539;SDS011;15906;52.046;4.724;2022-10-04T06:54:46;30.05;;;16.63;;
27539;SDS011;15906;52.046;4.724;2022-10-04T06:57:34;30.23;;;18.98;;
27539;SDS011;15906;52.046;4.724;2022-10-04T07:00:15;33.58;;;18.70;;
27539;SDS011;15906;52.046;4.724;2022-10-04T07:02:50;29.92;;;17.40;;
27539;SDS011;15906;52.046;4.724;2022-10-04T07:05:37;28.38;;;18.67;;
27539;SDS011;15906;52.046;4.724;2022-10-04T07:11:02;30.90;;;16.90;;
27539;SDS011;15906;52.046;4.724;2022-10-04T07:16:35;32.72;;;17.48;;
27539;SDS011;15906;52.046;4.724;2022-10-04T07:19:07;31.02;;;18.63;;
27539;SDS011;15906;52.046;4.724;2022-10-04T07:24:32;32.25;;;17.77;;
27539;SDS011;15906;52.046;4.724;2022-10-04T07:27:16;33.22;;;18.70;;
27539;SDS011;15906;52.046;4.724;2022-10-04T07:29:51;29.58;;;17.80;;
27539;SDS011;15906;52.046;4.724;2022-10-04T07:32:29;27.70;;;17.35;;
27539;SDS011;15906;52.046;4.724;2022-10-04T07:35:04;28.42;;;17.90;;
27539;SDS011;15906;52.046;4.724;2022-10-04T07:37:49;31.80;;;16.83;;
27539;SDS011;15906;52.046;4.724;2022-10-04T07:48:14;33.25;;;18.27;;
27539;SDS011;15906;52.046;4.724;2022-10-04T07:50:45;31.60;;;17.42;;
27539;SDS011;15906;52.046;4.724;2022-10-04T08:01:42;35.13;;;17.65;;
27539;SDS011;15906;52.046;4.724;2022-10-04T08:04:13;34.28;;;17.75;;
27539;SDS011;15906;52.046;4.724;2022-10-04T08:06:56;27.98;;;17.20;;
27539;SDS011;15906;52.046;4.724;2022-10-04T08:09:25;28.98;;;17.00;;
27539;SDS011;15906;52.046;4.724;2022-10-04T08:15:34;28.70;;;16.60;;
27539;SDS011;15906;52.046;4.724;2022-10-04T08:17:52;25.23;;;15.63;;
27539;SDS011;15906;52.046;4.724;2022-10-04T08:20:31;24.83;;;14.27;;
27539;SDS011;15906;52.046;4.724;2022-10-04T08:28:42;29.83;;;15.55;;
27539;SDS011;15906;52.046;4.724;2022-10-04T08:31:39;26.13;;;15.35;;
27539;SDS011;15906;52.046;4.724;2022-10-04T08:39:51;24.38;;;13.90;;
27539;SDS011;15906;52.046;4.724;2022-10-04T08:51:25;23.55;;;12.30;;
27539;SDS011;15906;52.046;4.724;2022-10-04T08:57:03;19.35;;;12.23;;
27539;SDS011;15906;52.046;4.724;2022-10-04T09:16:26;18.48;;;12.00;;
27539;SDS011;15906;52.046;4.724;2022-10-04T09:52:07;17.25;;;9.88;;
27539;SDS011;15906;52.046;4.724;2022-10-04T09:57:57;16.73;;;9.80;;
27539;SDS011;15906;52.046;4.724;2022-10-04T10:03:29;24.40;;;10.73;;
27539;SDS011;15906;52.046;4.724;2022-10-04T10:09:30;10.30;;;7.78;;
27539;SDS011;15906;52.046;4.724;2022-10-04T10:21:22;13.52;;;7.60;;
27539;SDS011;15906;52.046;4.724;2022-10-04T10:29:26;15.07;;;7.55;;
27539;SDS011;15906;52.046;4.724;2022-10-04T10:32:09;12.60;;;7.88;;
27539;SDS011;15906;52.046;4.724;2022-10-04T10:38:10;14.00;;;7.93;;
27539;SDS011;15906;52.046;4.724;2022-10-04T10:40:44;11.13;;;7.35;;
27539;SDS011;15906;52.046;4.724;2022-10-04T10:43:17;15.43;;;7.13;;
27539;SDS011;15906;52.046;4.724;2022-10-04T10:46:01;17.17;;;7.38;;
27539;SDS011;15906;52.046;4.724;2022-10-04T10:48:50;13.35;;;7.85;;
27539;SDS011;15906;52.046;4.724;2022-10-04T10:51:55;11.90;;;7.70;;
27539;SDS011;15906;52.046;4.724;2022-10-04T10:57:27;12.27;;;7.22;;
27539;SDS011;15906;52.046;4.724;2022-10-04T11:00:14;13.60;;;8.00;;
27539;SDS011;15906;52.046;4.724;2022-10-04T11:11:21;12.75;;;7.72;;
27539;SDS011;15906;52.046;4.724;2022-10-04T11:28:30;11.65;;;6.28;;
27539;SDS011;15906;52.046;4.724;2022-10-04T11:31:37;12.57;;;5.70;;
27539;SDS011;15906;52.046;4.724;2022-10-04T11:49:05;10.38;;;6.47;;
27539;SDS011;15906;52.046;4.724;2022-10-04T11:54:30;11.25;;;5.45;;
27539;SDS011;15906;52.046;4.724;2022-10-04T12:08:22;14.45;;;6.00;;
27539;SDS011;15906;52.046;4.724;2022-10-04T12:11:02;12.18;;;6.60;;
27539;SDS011;15906;52.046;4.724;2022-10-04T12:16:33;12.73;;;7.18;;
27539;SDS011;15906;52.046;4.724;2022-10-04T12:25:27;10.27;;;6.13;;
27539;SDS011;15906;52.046;4.724;2022-10-04T12:30:54;10.40;;;5.20;;
27539;SDS011;15906;52.046;4.724;2022-10-04T12:33:45;9.68;;;5.35;;
27539;SDS011;15906;52.046;4.724;2022-10-04T12:36:26;6.90;;;5.00;;
27539;SDS011;15906;52.046;4.724;2022-10-04T12:41:29;11.20;;;5.68;;
27539;SDS011;15906;52.046;4.724;2022-10-04T12:47:26;7.55;;;5.07;;
27539;SDS011;15906;52.046;4.724;2022-10-04T12:50:00;8.38;;;5.75;;
27539;SDS011;15906;52.046;4.724;2022-10-04T12:52:44;9.85;;;5.55;;
27539;SDS011;15906;52.046;4.724;2022-10-04T12:58:16;9.32;;;5.47;;
27539;SDS011;15906;52.046;4.724;2022-10-04T13:01:07;8.88;;;4.78;;
27539;SDS011;15906;52.046;4.724;2022-10-04T13:03:59;9.23;;;5.03;;
27539;SDS011;15906;52.046;4.724;2022-10-04T13:06:36;8.45;;;5.25;;
27539;SDS011;15906;52.046;4.724;2022-10-04T13:09:19;7.43;;;4.90;;
27539;SDS011;15906;52.046;4.724;2022-10-04T13:12:08;8.23;;;5.45;;
27539;SDS011;15906;52.046;4.724;2022-10-04T13:14:48;9.07;;;4.95;;
27539;SDS011;15906;52.046;4.724;2022-10-04T13:20:36;9.48;;;4.75;;
27539;SDS011;15906;52.046;4.724;2022-10-04T13:23:35;10.93;;;5.60;;
27539;SDS011;15906;52.046;4.724;2022-10-04T13:29:10;8.85;;;5.40;;
27539;SDS011;15906;52.046;4.724;2022-10-04T13:37:31;12.45;;;4.72;;
27539;SDS011;15906;52.046;4.724;2022-10-04T13:43:10;13.55;;;6.13;;
27539;SDS011;15906;52.046;4.724;2022-10-04T13:48:45;11.02;;;5.40;;
27539;SDS011;15906;52.046;4.724;2022-10-04T13:51:24;9.73;;;4.78;;
27539;SDS011;15906;52.046;4.724;2022-10-04T13:57:04;12.48;;;6.30;;
27539;SDS011;15906;52.046;4.724;2022-10-04T13:59:42;9.80;;;6.68;;
27539;SDS011;15906;52.046;4.724;2022-10-04T14:16:37;10.13;;;6.50;;
27539;SDS011;15906;52.046;4.724;2022-10-04T14:28:06;10.30;;;5.32;;
27539;SDS011;15906;52.046;4.724;2022-10-04T14:33:20;9.10;;;5.82;;
27539;SDS011;15906;52.046;4.724;2022-10-04T14:38:47;9.52;;;6.28;;
27539;SDS011;15906;52.046;4.724;2022-10-04T14:52:22;8.20;;;5.03;;
27539;SDS011;15906;52.046;4.724;2022-10-04T15:01:20;9.60;;;5.13;;
27539;SDS011;15906;52.046;4.724;2022-10-04T15:11:59;9.88;;;5.30;;
27539;SDS011;15906;52.046;4.724;2022-10-04T15:15:04;8.68;;;5.10;;
27539;SDS011;15906;52.046;4.724;2022-10-04T15:20:27;11.18;;;5.53;;
27539;SDS011;15906;52.046;4.724;2022-10-04T15:25:42;12.57;;;5.47;;
27539;SDS011;15906;52.046;4.724;2022-10-04T15:28:15;10.63;;;5.68;;
27539;SDS011;15906;52.046;4.724;2022-10-04T15:30:54;9.23;;;5.40;;
27539;SDS011;15906;52.046;4.724;2022-10-04T15:42:12;9.82;;;6.20;;
27539;SDS011;15906;52.046;4.724;2022-10-04T15:44:55;11.45;;;5.72;;
27539;SDS011;15906;52.046;4.724;2022-10-04T15:58:29;14.13;;;6.20;;
27539;SDS011;15906;52.046;4.724;2022-10-04T16:04:08;9.57;;;6.22;;
27539;SDS011;15906;52.046;4.724;2022-10-04T16:06:54;8.45;;;5.40;;
27539;SDS011;15906;52.046;4.724;2022-10-04T16:12:26;10.90;;;6.25;;
27539;SDS011;15906;52.046;4.724;2022-10-04T16:17:59;10.05;;;5.70;;
27539;SDS011;15906;52.046;4.724;2022-10-04T16:21:01;7.07;;;4.97;;
27539;SDS011;15906;52.046;4.724;2022-10-04T16:23:43;12.43;;;5.93;;
27539;SDS011;15906;52.046;4.724;2022-10-04T16:26:10;9.88;;;5.53;;
27539;SDS011;15906;52.046;4.724;2022-10-04T16:37:11;7.03;;;4.53;;
27539;SDS011;15906;52.046;4.724;2022-10-04T16:45:29;10.82;;;4.93;;
27539;SDS011;15906;52.046;4.724;2022-10-04T16:56:21;10.85;;;5.13;;
27539;SDS011;15906;52.046;4.724;2022-10-04T16:58:54;10.43;;;4.93;;
27539;SDS011;15906;52.046;4.724;2022-10-04T17:09:39;8.60;;;5.07;;
27539;SDS011;15906;52.046;4.724;2022-10-04T17:12:26;7.93;;;5.25;;
27539;SDS011;15906;52.046;4.724;2022-10-04T17:15:32;9.40;;;5.45;;
27539;SDS011;15906;52.046;4.724;2022-10-04T17:18:12;7.68;;;5.32;;
27539;SDS011;15906;52.046;4.724;2022-10-04T17:20:54;10.70;;;6.93;;
27539;SDS011;15906;52.046;4.724;2022-10-04T17:26:37;8.40;;;5.88;;
27539;SDS011;15906;52.046;4.724;2022-10-04T17:29:26;9.07;;;5.80;;
27539;SDS011;15906;52.046;4.724;2022-10-04T17:32:13;9.90;;;5.63;;
27539;SDS011;15906;52.046;4.724;2022-10-04T17:37:32;11.75;;;6.95;;
27539;SDS011;15906;52.046;4.724;2022-10-04T17:43:12;7.97;;;4.97;;
27539;SDS011;15906;52.046;4.724;2022-10-04T17:48:51;10.43;;;6.45;;
27539;SDS011;15906;52.046;4.724;2022-10-04T17:51:44;12.55;;;6.63;;
27539;SDS011;15906;52.046;4.724;2022-10-04T17:54:31;11.65;;;7.85;;
27539;SDS011;15906;52.046;4.724;2022-10-04T17:57:28;10.00;;;6.35;;
27539;SDS011;15906;52.046;4.724;2022-10-04T18:02:44;12.85;;;7.15;;
27539;SDS011;15906;52.046;4.724;2022-10-04T18:08:10;14.80;;;9.73;;
27539;SDS011;15906;52.046;4.724;2022-10-04T18:10:56;13.65;;;8.43;;
27539;SDS011;15906;52.046;4.724;2022-10-04T18:13:29;12.40;;;8.00;;
27539;SDS011;15906;52.046;4.724;2022-10-04T18:16:22;11.43;;;6.38;;
27539;SDS011;15906;52.046;4.724;2022-10-04T18:18:54;15.25;;;7.43;;
27539;SDS011;15906;52.046;4.724;2022-10-04T18:21:21;11.18;;;7.97;;
27539;SDS011;15906;52.046;4.724;2022-10-04T18:23:55;12.90;;;8.05;;
27539;SDS011;15906;52.046;4.724;2022-10-04T18:26:24;15.73;;;8.07;;
27539;SDS011;15906;52.046;4.724;2022-10-04T18:28:52;11.00;;;6.30;;
27539;SDS011;15906;52.046;4.724;2022-10-04T18:31:19;10.23;;;7.03;;
27539;SDS011;15906;52.046;4.724;2022-10-04T18:33:55;10.73;;;6.45;;
27539;SDS011;15906;52.046;4.724;2022-10-04T18:36:28;11.27;;;6.68;;
27539;SDS011;15906;52.046;4.724;2022-10-04T18:41:41;13.57;;;8.27;;
27539;SDS011;15906;52.046;4.724;2022-10-04T18:44:22;7.93;;;5.90;;
27539;SDS011;15906;52.046;4.724;2022-10-04T18:46:57;7.20;;;5.93;;
27539;SDS011;15906;52.046;4.724;2022-10-04T18:49:42;10.00;;;5.60;;
27539;SDS011;15906;52.046;4.724;2022-10-04T18:52:28;8.10;;;5.45;;
27539;SDS011;15906;52.046;4.724;2022-10-04T18:57:42;9.18;;;6.15;;
27539;SDS011;15906;52.046;4.724;2022-10-04T19:00:42;11.82;;;6.32;;
27539;SDS011;15906;52.046;4.724;2022-10-04T19:03:49;9.38;;;6.35;;
27539;SDS011;15906;52.046;4.724;2022-10-04T19:06:23;13.32;;;6.45;;
27539;SDS011;15906;52.046;4.724;2022-10-04T19:09:02;14.43;;;6.65;;
27539;SDS011;15906;52.046;4.724;2022-10-04T19:11:50;13.80;;;7.72;;
27539;SDS011;15906;52.046;4.724;2022-10-04T19:14:41;12.52;;;7.38;;
27539;SDS011;15906;52.046;4.724;2022-10-04T19:17:40;7.50;;;5.28;;
27539;SDS011;15906;52.046;4.724;2022-10-04T19:20:21;8.38;;;4.93;;
27539;SDS011;15906;52.046;4.724;2022-10-04T19:25:50;13.40;;;6.80;;
27539;SDS011;15906;52.046;4.724;2022-10-04T19:28:22;13.88;;;7.55;;
27539;SDS011;15906;52.046;4.724;2022-10-04T19:30:59;13.70;;;7.45;;
27539;SDS011;15906;52.046;4.724;2022-10-04T19:39:45;23.05;;;11.82;;
27539;SDS011;15906;52.046;4.724;2022-10-04T19:42:22;13.30;;;6.00;;
27539;SDS011;15906;52.046;4.724;2022-10-04T19:45:20;10.98;;;7.50;;
27539;SDS011;15906;52.046;4.724;2022-10-04T19:47:59;8.93;;;6.30;;
27539;SDS011;15906;52.046;4.724;2022-10-04T19:55:47;9.70;;;6.55;;
27539;SDS011;15906;52.046;4.724;2022-10-04T20:00:55;11.05;;;7.18;;
27539;SDS011;15906;52.046;4.724;2022-10-04T20:03:21;15.77;;;8.55;;
27539;SDS011;15906;52.046;4.724;2022-10-04T20:05:51;12.25;;;7.78;;
27539;SDS011;15906;52.046;4.724;2022-10-04T20:11:18;10.43;;;6.30;;
27539;SDS011;15906;52.046;4.724;2022-10-04T20:19:18;4.88;;;4.05;;
27539;SDS011;15906;52.046;4.724;2022-10-04T20:21:53;4.38;;;3.15;;
27539;SDS011;15906;52.046;4.724;2022-10-04T20:27:00;3.75;;;2.70;;
27539;SDS011;15906;52.046;4.724;2022-10-04T20:32:02;4.53;;;2.70;;
27539;SDS011;15906;52.046;4.724;2022-10-04T20:34:33;4.03;;;3.20;;
27539;SDS011;15906;52.046;4.724;2022-10-04T20:37:02;7.95;;;3.08;;
27539;SDS011;15906;52.046;4.724;2022-10-04T20:42:07;6.82;;;3.13;;
27539;SDS011;15906;52.046;4.724;2022-10-04T20:44:48;6.03;;;3.70;;
27539;SDS011;15906;52.046;4.724;2022-10-04T20:47:38;9.27;;;3.60;;
27539;SDS011;15906;52.046;4.724;2022-10-04T20:50:25;5.10;;;3.80;;
27539;SDS011;15906;52.046;4.724;2022-10-04T20:52:59;9.50;;;4.68;;
27539;SDS011;15906;52.046;4.724;2022-10-04T20:55:29;7.15;;;3.80;;
27539;SDS011;15906;52.046;4.724;2022-10-04T20:58:02;5.40;;;4.07;;
27539;SDS011;15906;52.046;4.724;2022-10-04T21:00:52;6.70;;;3.55;;
27539;SDS011;15906;52.046;4.724;2022-10-04T21:03:19;6.95;;;3.63;;
27539;SDS011;15906;52.046;4.724;2022-10-04T21:05:57;8.98;;;3.60;;
27539;SDS011;15906;52.046;4.724;2022-10-04T21:08:25;6.63;;;3.38;;
27539;SDS011;15906;52.046;4.724;2022-10-04T21:13:37;3.95;;;3.08;;
27539;SDS011;15906;52.046;4.724;2022-10-04T21:16:10;3.38;;;2.53;;
27539;SDS011;15906;52.046;4.724;2022-10-04T21:27:02;4.50;;;2.13;;
27539;SDS011;15906;52.046;4.724;2022-10-04T21:29:28;4.20;;;2.10;;
27539;SDS011;15906;52.046;4.724;2022-10-04T21:31:57;3.42;;;1.90;;
27539;SDS011;15906;52.046;4.724;2022-10-04T21:34:23;3.75;;;2.17;;
27539;SDS011;15906;52.046;4.724;2022-10-04T21:36:48;6.05;;;2.28;;
27539;SDS011;15906;52.046;4.724;2022-10-04T21:39:14;8.68;;;2.20;;
27539;SDS011;15906;52.046;4.724;2022-10-04T21:41:39;2.17;;;1.80;;
27539;SDS011;15906;52.046;4.724;2022-10-04T21:44:05;3.75;;;1.92;;
27539;SDS011;15906;52.046;4.724;2022-10-04T21:46:30;4.22;;;1.92;;
27539;SDS011;15906;52.046;4.724;2022-10-04T21:48:56;3.42;;;1.95;;
27539;SDS011;15906;52.046;4.724;2022-10-04T21:51:21;3.90;;;1.80;;
27539;SDS011;15906;52.046;4.724;2022-10-04T21:53:47;2.03;;;1.63;;
27539;SDS011;15906;52.046;4.724;2022-10-04T21:56:12;5.38;;;1.85;;
27539;SDS011;15906;52.046;4.724;2022-10-04T21:58:38;3.50;;;2.10;;
27539;SDS011;15906;52.046;4.724;2022-10-04T22:01:03;4.50;;;2.03;;
27539;SDS011;15906;52.046;4.724;2022-10-04T22:03:29;6.15;;;2.42;;
27539;SDS011;15906;52.046;4.724;2022-10-04T22:05:54;5.50;;;2.72;;
27539;SDS011;15906;52.046;4.724;2022-10-04T22:08:20;6.03;;;3.05;;
27539;SDS011;15906;52.046;4.724;2022-10-04T22:10:45;6.38;;;3.60;;
27539;SDS011;15906;52.046;4.724;2022-10-04T22:13:12;5.30;;;3.83;;
27539;SDS011;15906;52.046;4.724;2022-10-04T22:15:37;7.50;;;4.53;;
27539;SDS011;15906;52.046;4.724;2022-10-04T22:18:03;8.07;;;4.63;;
27539;SDS011;15906;52.046;4.724;2022-10-04T22:20:28;6.45;;;4.47;;
27539;SDS011;15906;52.046;4.724;2022-10-04T22:22:54;7.63;;;5.07;;
27539;SDS011;15906;52.046;4.724;2022-10-04T22:25:23;9.00;;;5.30;;
27539;SDS011;15906;52.046;4.724;2022-10-04T22:27:50;7.20;;;5.43;;
27539;SDS011;15906;52.046;4.724;2022-10-04T22:30:26;8.10;;;5.35;;
27539;SDS011;15906;52.046;4.724;2022-10-04T22:32:57;9.48;;;5.90;;
27539;SDS011;15906;52.046;4.724;2022-10-04T22:35:27;8.13;;;5.63;;
27539;SDS011;15906;52.046;4.724;2022-10-04T22:37:54;9.55;;;5.15;;
27539;SDS011;15906;52.046;4.724;2022-10-04T22:40:21;7.68;;;5.00;;
27539;SDS011;15906;52.046;4.724;2022-10-04T22:42:51;10.07;;;5.40;;
27539;SDS011;15906;52.046;4.724;2022-10-04T22:45:23;7.53;;;4.93;;
27539;SDS011;15906;52.046;4.724;2022-10-04T22:47:51;7.53;;;4.75;;
27539;SDS011;15906;52.046;4.724;2022-10-04T22:50:32;8.13;;;5.22;;
27539;SDS011;15906;52.046;4.724;2022-10-04T22:53:06;7.55;;;4.97;;
27539;SDS011;15906;52.046;4.724;2022-10-04T22:55:40;6.55;;;4.38;;
27539;SDS011;15906;52.046;4.724;2022-10-04T22:58:08;7.28;;;4.18;;
27539;SDS011;15906;52.046;4.724;2022-10-04T23:00:37;6.03;;;3.95;;
27539;SDS011;15906;52.046;4.724;2022-10-04T23:03:07;6.50;;;3.72;;
27539;SDS011;15906;52.046;4.724;2022-10-04T23:05:50;6.55;;;3.90;;
27539;SDS011;15906;52.046;4.724;2022-10-04T23:08:16;4.10;;;3.33;;
27539;SDS011;15906;52.046;4.724;2022-10-04T23:10:42;5.32;;;3.17;;
27539;SDS011;15906;52.046;4.724;2022-10-04T23:13:08;4.88;;;3.30;;
27539;SDS011;15906;52.046;4.724;2022-10-04T23:15:34;4.80;;;3.50;;
27539;SDS011;15906;52.046;4.724;2022-10-04T23:17:59;6.10;;;2.92;;
27539;SDS011;15906;52.046;4.724;2022-10-04T23:20:25;5.30;;;3.30;;
27539;SDS011;15906;52.046;4.724;2022-10-04T23:22:52;4.28;;;3.10;;
27539;SDS011;15906;52.046;4.724;2022-10-04T23:25:24;3.70;;;2.50;;
27539;SDS011;15906;52.046;4.724;2022-10-04T23:27:51;4.60;;;2.70;;